sensor_id;sensor_type;location;lat;lon;timestamp;P1;durP1;ratioP1;P2;durP2;ratioP2
65545;SDS011;52177;55.968;37.498;2022-09-29T00:00:13;7.10;;;5.72;;
65545;SDS011;52177;55.968;37.498;2022-09-29T00:00:44;6.15;;;5.55;;
65545;SDS011;52177;55.968;37.498;2022-09-29T00:01:17;5.97;;;5.32;;
65545;SDS011;52177;55.968;37.498;2022-09-29T00:01:48;7.07;;;5.35;;
65545;SDS011;52177;55.968;37.498;2022-09-29T00:02:18;6.07;;;5.47;;
65545;SDS011;52177;55.968;37.498;2022-09-29T00:02:48;7.32;;;5.70;;
65545;SDS011;52177;55.968;37.498;2022-09-29T00:03:22;7.57;;;5.55;;
65545;SDS011;52177;55.968;37.498;2022-09-29T00:03:52;5.93;;;5.32;;
65545;SDS011;52177;55.968;37.498;2022-09-29T00:04:23;6.95;;;5.55;;
65545;SDS011;52177;55.968;37.498;2022-09-29T00:04:53;6.18;;;5.57;;
65545;SDS011;52177;55.968;37.498;2022-09-29T00:05:23;6.43;;;5.38;;
65545;SDS011;52177;55.968;37.498;2022-09-29T00:05:54;7.85;;;5.68;;
65545;SDS011;52177;55.968;37.498;2022-09-29T00:06:25;6.30;;;5.20;;
65545;SDS011;52177;55.968;37.498;2022-09-29T00:06:55;6.45;;;5.28;;
65545;SDS011;52177;55.968;37.498;2022-09-29T00:07:27;10.60;;;5.93;;
65545;SDS011;52177;55.968;37.498;2022-09-29T00:07:58;7.53;;;5.55;;
65545;SDS011;52177;55.968;37.498;2022-09-29T00:08:31;6.20;;;5.60;;
65545;SDS011;52177;55.968;37.498;2022-09-29T00:09:01;9.32;;;5.68;;
65545;SDS011;52177;55.968;37.498;2022-09-29T00:09:32;5.97;;;5.30;;
65545;SDS011;52177;55.968;37.498;2022-09-29T00:10:02;7.22;;;5.57;;
65545;SDS011;52177;55.968;37.498;2022-09-29T00:10:34;7.63;;;5.82;;
65545;SDS011;52177;55.968;37.498;2022-09-29T00:11:07;5.90;;;5.03;;
65545;SDS011;52177;55.968;37.498;2022-09-29T00:11:42;5.63;;;5.13;;
65545;SDS011;52177;55.968;37.498;2022-09-29T00:12:12;6.40;;;5.13;;
65545;SDS011;52177;55.968;37.498;2022-09-29T00:12:43;6.68;;;5.20;;
65545;SDS011;52177;55.968;37.498;2022-09-29T00:13:14;7.40;;;5.57;;
65545;SDS011;52177;55.968;37.498;2022-09-29T00:13:45;5.80;;;5.07;;
65545;SDS011;52177;55.968;37.498;2022-09-29T00:14:16;7.05;;;5.45;;
65545;SDS011;52177;55.968;37.498;2022-09-29T00:14:47;7.38;;;5.85;;
65545;SDS011;52177;55.968;37.498;2022-09-29T00:15:17;6.25;;;5.05;;
65545;SDS011;52177;55.968;37.498;2022-09-29T00:15:58;7.00;;;5.05;;
65545;SDS011;52177;55.968;37.498;2022-09-29T00:16:30;6.97;;;5.55;;
65545;SDS011;52177;55.968;37.498;2022-09-29T00:17:00;5.97;;;5.45;;
65545;SDS011;52177;55.968;37.498;2022-09-29T00:17:30;6.53;;;5.50;;
65545;SDS011;52177;55.968;37.498;2022-09-29T00:18:01;8.07;;;6.32;;
65545;SDS011;52177;55.968;37.498;2022-09-29T00:18:32;7.50;;;5.32;;
65545;SDS011;52177;55.968;37.498;2022-09-29T00:19:03;6.78;;;5.53;;
65545;SDS011;52177;55.968;37.498;2022-09-29T00:19:34;7.38;;;6.30;;
65545;SDS011;52177;55.968;37.498;2022-09-29T00:20:04;6.70;;;5.65;;
65545;SDS011;52177;55.968;37.498;2022-09-29T00:20:35;6.20;;;5.60;;
65545;SDS011;52177;55.968;37.498;2022-09-29T00:21:07;7.32;;;6.00;;
65545;SDS011;52177;55.968;37.498;2022-09-29T00:21:43;6.65;;;6.00;;
65545;SDS011;52177;55.968;37.498;2022-09-29T00:22:13;6.57;;;5.80;;
65545;SDS011;52177;55.968;37.498;2022-09-29T00:22:43;6.38;;;5.78;;
65545;SDS011;52177;55.968;37.498;2022-09-29T00:23:14;6.57;;;5.82;;
65545;SDS011;52177;55.968;37.498;2022-09-29T00:23:44;7.80;;;5.72;;
65545;SDS011;52177;55.968;37.498;2022-09-29T00:24:15;8.30;;;5.63;;
65545;SDS011;52177;55.968;37.498;2022-09-29T00:24:45;8.40;;;5.57;;
65545;SDS011;52177;55.968;37.498;2022-09-29T00:25:17;6.05;;;5.45;;
65545;SDS011;52177;55.968;37.498;2022-09-29T00:25:48;6.93;;;6.10;;
65545;SDS011;52177;55.968;37.498;2022-09-29T00:26:20;6.38;;;5.75;;
65545;SDS011;52177;55.968;37.498;2022-09-29T00:26:51;6.20;;;5.60;;
65545;SDS011;52177;55.968;37.498;2022-09-29T00:27:22;6.10;;;5.50;;
65545;SDS011;52177;55.968;37.498;2022-09-29T00:27:53;10.32;;;5.95;;
65545;SDS011;52177;55.968;37.498;2022-09-29T00:28:23;6.78;;;6.03;;
65545;SDS011;52177;55.968;37.498;2022-09-29T00:28:54;6.78;;;6.18;;
65545;SDS011;52177;55.968;37.498;2022-09-29T00:29:26;6.43;;;5.72;;
65545;SDS011;52177;55.968;37.498;2022-09-29T00:29:57;7.63;;;6.03;;
65545;SDS011;52177;55.968;37.498;2022-09-29T00:30:27;6.60;;;5.95;;
65545;SDS011;52177;55.968;37.498;2022-09-29T00:30:58;6.20;;;5.60;;
65545;SDS011;52177;55.968;37.498;2022-09-29T00:31:32;7.72;;;5.57;;
65545;SDS011;52177;55.968;37.498;2022-09-29T00:32:03;7.32;;;6.18;;
65545;SDS011;52177;55.968;37.498;2022-09-29T00:32:33;10.18;;;6.07;;
65545;SDS011;52177;55.968;37.498;2022-09-29T00:33:04;7.18;;;6.50;;
65545;SDS011;52177;55.968;37.498;2022-09-29T00:33:35;6.60;;;5.93;;
65545;SDS011;52177;55.968;37.498;2022-09-29T00:34:06;6.25;;;5.65;;
65545;SDS011;52177;55.968;37.498;2022-09-29T00:34:36;7.53;;;6.05;;
65545;SDS011;52177;55.968;37.498;2022-09-29T00:35:07;7.63;;;5.82;;
65545;SDS011;52177;55.968;37.498;2022-09-29T00:35:41;7.13;;;6.43;;
65545;SDS011;52177;55.968;37.498;2022-09-29T00:36:13;7.85;;;6.38;;
65545;SDS011;52177;55.968;37.498;2022-09-29T00:36:45;8.27;;;6.57;;
65545;SDS011;52177;55.968;37.498;2022-09-29T00:37:15;6.78;;;6.10;;
65545;SDS011;52177;55.968;37.498;2022-09-29T00:37:46;6.75;;;6.03;;
65545;SDS011;52177;55.968;37.498;2022-09-29T00:38:16;6.55;;;5.95;;
65545;SDS011;52177;55.968;37.498;2022-09-29T00:38:48;7.97;;;5.95;;
65545;SDS011;52177;55.968;37.498;2022-09-29T00:39:22;7.60;;;6.35;;
65545;SDS011;52177;55.968;37.498;2022-09-29T00:39:52;6.90;;;6.13;;
65545;SDS011;52177;55.968;37.498;2022-09-29T00:40:23;7.05;;;6.10;;
65545;SDS011;52177;55.968;37.498;2022-09-29T00:40:53;8.25;;;6.30;;
65545;SDS011;52177;55.968;37.498;2022-09-29T00:41:25;9.95;;;5.82;;
65545;SDS011;52177;55.968;37.498;2022-09-29T00:42:01;8.73;;;6.70;;
65545;SDS011;52177;55.968;37.498;2022-09-29T00:42:31;8.05;;;6.65;;
65545;SDS011;52177;55.968;37.498;2022-09-29T00:43:01;9.00;;;6.15;;
65545;SDS011;52177;55.968;37.498;2022-09-29T00:45:33;8.73;;;6.63;;
65545;SDS011;52177;55.968;37.498;2022-09-29T00:46:04;6.82;;;5.93;;
65545;SDS011;52177;55.968;37.498;2022-09-29T00:47:13;6.72;;;5.90;;
65545;SDS011;52177;55.968;37.498;2022-09-29T00:47:49;6.47;;;5.88;;
65545;SDS011;52177;55.968;37.498;2022-09-29T00:48:40;7.50;;;6.10;;
65545;SDS011;52177;55.968;37.498;2022-09-29T00:50:27;6.40;;;5.80;;
65545;SDS011;52177;55.968;37.498;2022-09-29T00:51:16;6.45;;;5.85;;
65545;SDS011;52177;55.968;37.498;2022-09-29T00:51:50;6.85;;;6.15;;
65545;SDS011;52177;55.968;37.498;2022-09-29T00:52:29;6.72;;;6.03;;
65545;SDS011;52177;55.968;37.498;2022-09-29T00:53:01;6.57;;;5.75;;
65545;SDS011;52177;55.968;37.498;2022-09-29T00:53:33;6.60;;;5.90;;
65545;SDS011;52177;55.968;37.498;2022-09-29T00:54:04;8.48;;;6.07;;
65545;SDS011;52177;55.968;37.498;2022-09-29T00:54:38;8.55;;;6.07;;
65545;SDS011;52177;55.968;37.498;2022-09-29T00:55:53;7.75;;;6.00;;
65545;SDS011;52177;55.968;37.498;2022-09-29T00:56:28;8.07;;;6.45;;
65545;SDS011;52177;55.968;37.498;2022-09-29T00:56:59;7.15;;;6.03;;
65545;SDS011;52177;55.968;37.498;2022-09-29T00:57:33;7.38;;;6.53;;
65545;SDS011;52177;55.968;37.498;2022-09-29T00:58:53;9.73;;;5.30;;
65545;SDS011;52177;55.968;37.498;2022-09-29T00:59:41;8.00;;;6.30;;
65545;SDS011;52177;55.968;37.498;2022-09-29T01:00:20;6.20;;;5.60;;
65545;SDS011;52177;55.968;37.498;2022-09-29T01:00:50;10.40;;;6.45;;
65545;SDS011;52177;55.968;37.498;2022-09-29T01:01:21;6.78;;;5.78;;
65545;SDS011;52177;55.968;37.498;2022-09-29T01:01:52;7.20;;;6.00;;
65545;SDS011;52177;55.968;37.498;2022-09-29T01:02:23;6.82;;;6.22;;
65545;SDS011;52177;55.968;37.498;2022-09-29T01:03:07;6.70;;;6.10;;
65545;SDS011;52177;55.968;37.498;2022-09-29T01:03:42;8.05;;;6.03;;
65545;SDS011;52177;55.968;37.498;2022-09-29T01:04:16;6.35;;;5.70;;
65545;SDS011;52177;55.968;37.498;2022-09-29T01:04:48;9.02;;;5.80;;
65545;SDS011;52177;55.968;37.498;2022-09-29T01:05:23;6.82;;;6.00;;
65545;SDS011;52177;55.968;37.498;2022-09-29T01:05:59;7.53;;;5.90;;
65545;SDS011;52177;55.968;37.498;2022-09-29T01:06:42;6.95;;;5.75;;
65545;SDS011;52177;55.968;37.498;2022-09-29T01:07:17;7.40;;;5.82;;
65545;SDS011;52177;55.968;37.498;2022-09-29T01:07:50;6.90;;;5.95;;
65545;SDS011;52177;55.968;37.498;2022-09-29T01:08:35;7.32;;;6.10;;
65545;SDS011;52177;55.968;37.498;2022-09-29T01:09:22;6.70;;;5.82;;
65545;SDS011;52177;55.968;37.498;2022-09-29T01:09:57;6.20;;;5.47;;
65545;SDS011;52177;55.968;37.498;2022-09-29T01:10:28;8.68;;;6.07;;
65545;SDS011;52177;55.968;37.498;2022-09-29T01:11:00;6.72;;;5.85;;
65545;SDS011;52177;55.968;37.498;2022-09-29T01:11:31;5.95;;;5.35;;
65545;SDS011;52177;55.968;37.498;2022-09-29T01:12:01;6.30;;;5.70;;
65545;SDS011;52177;55.968;37.498;2022-09-29T01:12:33;6.15;;;5.55;;
65545;SDS011;52177;55.968;37.498;2022-09-29T01:13:04;7.18;;;5.65;;
65545;SDS011;52177;55.968;37.498;2022-09-29T01:13:35;7.63;;;5.72;;
65545;SDS011;52177;55.968;37.498;2022-09-29T01:14:07;6.25;;;5.65;;
65545;SDS011;52177;55.968;37.498;2022-09-29T01:14:39;6.38;;;5.65;;
65545;SDS011;52177;55.968;37.498;2022-09-29T01:15:10;6.15;;;5.55;;
65545;SDS011;52177;55.968;37.498;2022-09-29T01:15:44;6.45;;;5.50;;
65545;SDS011;52177;55.968;37.498;2022-09-29T01:16:14;7.30;;;5.43;;
65545;SDS011;52177;55.968;37.498;2022-09-29T01:16:45;8.75;;;5.72;;
65545;SDS011;52177;55.968;37.498;2022-09-29T01:17:16;6.28;;;5.55;;
65545;SDS011;52177;55.968;37.498;2022-09-29T01:17:46;6.07;;;5.57;;
65545;SDS011;52177;55.968;37.498;2022-09-29T01:18:18;6.05;;;5.32;;
65545;SDS011;52177;55.968;37.498;2022-09-29T01:18:49;8.70;;;5.88;;
65545;SDS011;52177;55.968;37.498;2022-09-29T01:19:38;5.88;;;5.28;;
65545;SDS011;52177;55.968;37.498;2022-09-29T01:20:11;6.72;;;5.18;;
65545;SDS011;52177;55.968;37.498;2022-09-29T01:21:07;5.65;;;4.80;;
65545;SDS011;52177;55.968;37.498;2022-09-29T01:26:34;7.13;;;4.85;;
65545;SDS011;52177;55.968;37.498;2022-09-29T01:35:18;5.07;;;4.63;;
65545;SDS011;52177;55.968;37.498;2022-09-29T01:36:02;4.95;;;4.53;;
65545;SDS011;52177;55.968;37.498;2022-09-29T01:36:39;5.57;;;4.85;;
65545;SDS011;52177;55.968;37.498;2022-09-29T01:39:26;5.72;;;4.95;;
65545;SDS011;52177;55.968;37.498;2022-09-29T01:42:53;5.68;;;4.95;;
65545;SDS011;52177;55.968;37.498;2022-09-29T01:43:32;7.63;;;4.90;;
65545;SDS011;52177;55.968;37.498;2022-09-29T01:45:01;5.43;;;4.60;;
65545;SDS011;52177;55.968;37.498;2022-09-29T01:45:39;6.25;;;4.55;;
65545;SDS011;52177;55.968;37.498;2022-09-29T01:46:19;7.28;;;5.00;;
65545;SDS011;52177;55.968;37.498;2022-09-29T01:46:52;6.20;;;4.60;;
65545;SDS011;52177;55.968;37.498;2022-09-29T01:47:44;6.72;;;4.97;;
65545;SDS011;52177;55.968;37.498;2022-09-29T01:48:23;7.22;;;5.03;;
65545;SDS011;52177;55.968;37.498;2022-09-29T01:48:59;5.50;;;4.90;;
65545;SDS011;52177;55.968;37.498;2022-09-29T01:49:32;7.90;;;5.00;;
65545;SDS011;52177;55.968;37.498;2022-09-29T01:50:12;5.25;;;4.75;;
65545;SDS011;52177;55.968;37.498;2022-09-29T01:50:48;5.85;;;5.28;;
65545;SDS011;52177;55.968;37.498;2022-09-29T01:51:27;5.28;;;4.78;;
65545;SDS011;52177;55.968;37.498;2022-09-29T01:52:05;6.75;;;5.00;;
65545;SDS011;52177;55.968;37.498;2022-09-29T01:52:41;6.80;;;4.90;;
65545;SDS011;52177;55.968;37.498;2022-09-29T01:53:20;8.18;;;5.03;;
65545;SDS011;52177;55.968;37.498;2022-09-29T01:53:58;5.55;;;5.05;;
65545;SDS011;52177;55.968;37.498;2022-09-29T01:55:19;6.47;;;5.20;;
65545;SDS011;52177;55.968;37.498;2022-09-29T01:55:54;5.57;;;4.55;;
65545;SDS011;52177;55.968;37.498;2022-09-29T01:56:54;5.95;;;4.60;;
65545;SDS011;52177;55.968;37.498;2022-09-29T01:57:36;5.53;;;4.97;;
65545;SDS011;52177;55.968;37.498;2022-09-29T01:58:18;6.57;;;4.90;;
65545;SDS011;52177;55.968;37.498;2022-09-29T01:59:39;5.57;;;4.90;;
65545;SDS011;52177;55.968;37.498;2022-09-29T02:00:15;8.32;;;5.13;;
65545;SDS011;52177;55.968;37.498;2022-09-29T02:00:48;5.97;;;5.32;;
65545;SDS011;52177;55.968;37.498;2022-09-29T02:01:23;5.22;;;4.70;;
65545;SDS011;52177;55.968;37.498;2022-09-29T02:01:59;5.82;;;4.80;;
65545;SDS011;52177;55.968;37.498;2022-09-29T02:03:21;6.28;;;4.80;;
65545;SDS011;52177;55.968;37.498;2022-09-29T02:04:03;5.75;;;4.78;;
65545;SDS011;52177;55.968;37.498;2022-09-29T02:05:00;5.28;;;4.78;;
65545;SDS011;52177;55.968;37.498;2022-09-29T02:06:13;6.55;;;4.75;;
65545;SDS011;52177;55.968;37.498;2022-09-29T02:06:48;7.18;;;5.00;;
65545;SDS011;52177;55.968;37.498;2022-09-29T02:07:26;5.50;;;5.00;;
65545;SDS011;52177;55.968;37.498;2022-09-29T02:08:45;5.63;;;5.00;;
65545;SDS011;52177;55.968;37.498;2022-09-29T02:09:02;5.90;;;4.70;;
65545;SDS011;52177;55.968;37.498;2022-09-29T02:09:39;6.45;;;5.57;;
65545;SDS011;52177;55.968;37.498;2022-09-29T02:10:53;5.68;;;5.15;;
65545;SDS011;52177;55.968;37.498;2022-09-29T02:11:30;5.00;;;4.50;;
65545;SDS011;52177;55.968;37.498;2022-09-29T02:12:04;5.00;;;4.50;;
65545;SDS011;52177;55.968;37.498;2022-09-29T02:12:36;5.40;;;4.90;;
65545;SDS011;52177;55.968;37.498;2022-09-29T02:13:09;5.90;;;4.85;;
65545;SDS011;52177;55.968;37.498;2022-09-29T02:13:54;5.25;;;4.85;;
65545;SDS011;52177;55.968;37.498;2022-09-29T02:14:30;5.95;;;4.72;;
65545;SDS011;52177;55.968;37.498;2022-09-29T02:15:07;5.68;;;5.00;;
65545;SDS011;52177;55.968;37.498;2022-09-29T02:15:42;6.63;;;5.22;;
65545;SDS011;52177;55.968;37.498;2022-09-29T02:16:20;5.80;;;4.70;;
65545;SDS011;52177;55.968;37.498;2022-09-29T02:17:15;6.05;;;4.68;;
65545;SDS011;52177;55.968;37.498;2022-09-29T02:17:50;6.10;;;4.38;;
65545;SDS011;52177;55.968;37.498;2022-09-29T02:18:24;7.65;;;4.80;;
65545;SDS011;52177;55.968;37.498;2022-09-29T02:19:37;5.90;;;5.15;;
65545;SDS011;52177;55.968;37.498;2022-09-29T02:20:12;6.30;;;5.07;;
65545;SDS011;52177;55.968;37.498;2022-09-29T02:20:44;5.82;;;5.28;;
65545;SDS011;52177;55.968;37.498;2022-09-29T02:21:15;5.70;;;5.18;;
65545;SDS011;52177;55.968;37.498;2022-09-29T02:21:46;5.60;;;4.95;;
65545;SDS011;52177;55.968;37.498;2022-09-29T02:22:16;6.13;;;5.22;;
65545;SDS011;52177;55.968;37.498;2022-09-29T02:22:47;6.88;;;5.22;;
65545;SDS011;52177;55.968;37.498;2022-09-29T02:23:18;5.97;;;5.38;;
65545;SDS011;52177;55.968;37.498;2022-09-29T02:23:48;5.47;;;4.97;;
65545;SDS011;52177;55.968;37.498;2022-09-29T02:24:21;6.00;;;4.95;;
65545;SDS011;52177;55.968;37.498;2022-09-29T02:24:53;5.82;;;4.93;;
65545;SDS011;52177;55.968;37.498;2022-09-29T02:25:27;5.38;;;4.93;;
65545;SDS011;52177;55.968;37.498;2022-09-29T02:25:57;7.68;;;5.07;;
65545;SDS011;52177;55.968;37.498;2022-09-29T02:26:31;5.80;;;5.20;;
65545;SDS011;52177;55.968;37.498;2022-09-29T02:27:06;7.32;;;5.40;;
65545;SDS011;52177;55.968;37.498;2022-09-29T02:27:36;6.00;;;5.40;;
65545;SDS011;52177;55.968;37.498;2022-09-29T02:28:08;5.47;;;4.95;;
65545;SDS011;52177;55.968;37.498;2022-09-29T02:28:39;6.22;;;5.20;;
65545;SDS011;52177;55.968;37.498;2022-09-29T02:29:11;6.82;;;5.18;;
65545;SDS011;52177;55.968;37.498;2022-09-29T02:29:43;6.10;;;5.25;;
65545;SDS011;52177;55.968;37.498;2022-09-29T02:30:15;6.93;;;5.18;;
65545;SDS011;52177;55.968;37.498;2022-09-29T02:30:48;5.47;;;4.93;;
65545;SDS011;52177;55.968;37.498;2022-09-29T02:31:19;5.43;;;4.93;;
65545;SDS011;52177;55.968;37.498;2022-09-29T02:31:49;5.90;;;5.20;;
65545;SDS011;52177;55.968;37.498;2022-09-29T02:32:19;9.13;;;5.47;;
65545;SDS011;52177;55.968;37.498;2022-09-29T02:32:50;6.05;;;5.03;;
65545;SDS011;52177;55.968;37.498;2022-09-29T02:33:21;6.80;;;5.28;;
65545;SDS011;52177;55.968;37.498;2022-09-29T02:33:53;7.13;;;5.15;;
65545;SDS011;52177;55.968;37.498;2022-09-29T02:34:24;5.57;;;5.13;;
65545;SDS011;52177;55.968;37.498;2022-09-29T02:34:54;5.93;;;5.30;;
65545;SDS011;52177;55.968;37.498;2022-09-29T02:35:27;5.88;;;5.28;;
65545;SDS011;52177;55.968;37.498;2022-09-29T02:38:09;9.18;;;4.72;;
65545;SDS011;52177;55.968;37.498;2022-09-29T02:42:19;5.30;;;4.80;;
65545;SDS011;52177;55.968;37.498;2022-09-29T02:43:25;5.18;;;4.47;;
65545;SDS011;52177;55.968;37.498;2022-09-29T02:46:32;5.07;;;4.57;;
65545;SDS011;52177;55.968;37.498;2022-09-29T02:49:07;5.78;;;4.43;;
65545;SDS011;52177;55.968;37.498;2022-09-29T02:50:50;5.35;;;4.85;;
65545;SDS011;52177;55.968;37.498;2022-09-29T02:51:39;5.32;;;4.82;;
65545;SDS011;52177;55.968;37.498;2022-09-29T02:54:10;7.15;;;5.75;;
65545;SDS011;52177;55.968;37.498;2022-09-29T02:56:23;7.75;;;5.50;;
65545;SDS011;52177;55.968;37.498;2022-09-29T02:59:33;9.25;;;6.00;;
65545;SDS011;52177;55.968;37.498;2022-09-29T03:00:15;7.57;;;6.88;;
65545;SDS011;52177;55.968;37.498;2022-09-29T03:00:46;8.10;;;7.20;;
65545;SDS011;52177;55.968;37.498;2022-09-29T03:01:17;7.20;;;6.55;;
65545;SDS011;52177;55.968;37.498;2022-09-29T03:01:49;7.93;;;7.13;;
65545;SDS011;52177;55.968;37.498;2022-09-29T03:02:24;7.88;;;7.07;;
65545;SDS011;52177;55.968;37.498;2022-09-29T03:02:55;8.40;;;7.00;;
65545;SDS011;52177;55.968;37.498;2022-09-29T03:03:26;7.93;;;7.22;;
65545;SDS011;52177;55.968;37.498;2022-09-29T03:03:57;7.57;;;6.78;;
65545;SDS011;52177;55.968;37.498;2022-09-29T03:04:28;8.63;;;7.03;;
65545;SDS011;52177;55.968;37.498;2022-09-29T03:04:58;8.55;;;7.13;;
65545;SDS011;52177;55.968;37.498;2022-09-29T03:05:29;7.90;;;7.10;;
65545;SDS011;52177;55.968;37.498;2022-09-29T03:06:00;10.15;;;7.00;;
65545;SDS011;52177;55.968;37.498;2022-09-29T03:06:31;10.05;;;7.80;;
65545;SDS011;52177;55.968;37.498;2022-09-29T03:07:01;8.40;;;7.57;;
65545;SDS011;52177;55.968;37.498;2022-09-29T03:07:32;7.90;;;7.10;;
65545;SDS011;52177;55.968;37.498;2022-09-29T03:08:02;8.40;;;7.30;;
65545;SDS011;52177;55.968;37.498;2022-09-29T03:08:34;10.52;;;8.80;;
65545;SDS011;52177;55.968;37.498;2022-09-29T03:09:04;8.43;;;7.65;;
65545;SDS011;52177;55.968;37.498;2022-09-29T03:09:36;10.23;;;7.97;;
65545;SDS011;52177;55.968;37.498;2022-09-29T03:10:07;9.40;;;8.40;;
65545;SDS011;52177;55.968;37.498;2022-09-29T03:10:39;9.05;;;8.15;;
65545;SDS011;52177;55.968;37.498;2022-09-29T03:11:09;9.25;;;8.38;;
65545;SDS011;52177;55.968;37.498;2022-09-29T03:11:39;8.75;;;7.72;;
65545;SDS011;52177;55.968;37.498;2022-09-29T03:12:10;9.93;;;9.02;;
65545;SDS011;52177;55.968;37.498;2022-09-29T03:12:41;11.75;;;9.70;;
65545;SDS011;52177;55.968;37.498;2022-09-29T03:13:11;10.07;;;8.90;;
65545;SDS011;52177;55.968;37.498;2022-09-29T03:13:42;9.15;;;8.27;;
65545;SDS011;52177;55.968;37.498;2022-09-29T03:14:12;9.13;;;8.30;;
65545;SDS011;52177;55.968;37.498;2022-09-29T03:14:43;9.23;;;8.43;;
65545;SDS011;52177;55.968;37.498;2022-09-29T03:15:13;10.10;;;8.90;;
65545;SDS011;52177;55.968;37.498;2022-09-29T03:15:44;10.15;;;8.50;;
65545;SDS011;52177;55.968;37.498;2022-09-29T03:16:14;9.23;;;8.32;;
65545;SDS011;52177;55.968;37.498;2022-09-29T03:16:45;9.65;;;8.15;;
65545;SDS011;52177;55.968;37.498;2022-09-29T03:17:15;9.18;;;8.27;;
65545;SDS011;52177;55.968;37.498;2022-09-29T03:17:45;9.35;;;8.32;;
65545;SDS011;52177;55.968;37.498;2022-09-29T03:18:16;8.63;;;7.70;;
65545;SDS011;52177;55.968;37.498;2022-09-29T03:18:46;8.63;;;7.82;;
65545;SDS011;52177;55.968;37.498;2022-09-29T03:19:16;8.23;;;7.53;;
65545;SDS011;52177;55.968;37.498;2022-09-29T03:19:47;8.85;;;8.02;;
65545;SDS011;52177;55.968;37.498;2022-09-29T03:20:19;8.25;;;7.43;;
65545;SDS011;52177;55.968;37.498;2022-09-29T03:20:52;8.98;;;8.18;;
65545;SDS011;52177;55.968;37.498;2022-09-29T03:21:23;8.48;;;7.75;;
65545;SDS011;52177;55.968;37.498;2022-09-29T03:21:54;8.07;;;7.38;;
65545;SDS011;52177;55.968;37.498;2022-09-29T03:22:24;8.75;;;8.00;;
65545;SDS011;52177;55.968;37.498;2022-09-29T03:22:55;9.00;;;8.10;;
65545;SDS011;52177;55.968;37.498;2022-09-29T03:23:26;8.82;;;8.10;;
65545;SDS011;52177;55.968;37.498;2022-09-29T03:23:56;8.95;;;7.88;;
65545;SDS011;52177;55.968;37.498;2022-09-29T03:24:27;9.07;;;8.23;;
65545;SDS011;52177;55.968;37.498;2022-09-29T03:24:57;8.73;;;7.82;;
65545;SDS011;52177;55.968;37.498;2022-09-29T03:25:27;8.32;;;7.60;;
65545;SDS011;52177;55.968;37.498;2022-09-29T03:25:58;9.70;;;7.90;;
65545;SDS011;52177;55.968;37.498;2022-09-29T03:26:29;8.10;;;7.40;;
65545;SDS011;52177;55.968;37.498;2022-09-29T03:26:59;9.05;;;8.15;;
65545;SDS011;52177;55.968;37.498;2022-09-29T03:27:29;9.07;;;8.18;;
65545;SDS011;52177;55.968;37.498;2022-09-29T03:28:00;8.75;;;7.95;;
65545;SDS011;52177;55.968;37.498;2022-09-29T03:28:30;9.75;;;7.50;;
65545;SDS011;52177;55.968;37.498;2022-09-29T03:29:01;9.25;;;7.90;;
65545;SDS011;52177;55.968;37.498;2022-09-29T03:29:32;10.25;;;7.95;;
65545;SDS011;52177;55.968;37.498;2022-09-29T03:30:02;8.57;;;7.78;;
65545;SDS011;52177;55.968;37.498;2022-09-29T03:30:33;8.30;;;7.50;;
65545;SDS011;52177;55.968;37.498;2022-09-29T03:31:04;8.65;;;7.80;;
65545;SDS011;52177;55.968;37.498;2022-09-29T03:31:41;8.82;;;8.02;;
65545;SDS011;52177;55.968;37.498;2022-09-29T03:32:11;8.93;;;8.10;;
65545;SDS011;52177;55.968;37.498;2022-09-29T03:32:42;8.77;;;7.63;;
65545;SDS011;52177;55.968;37.498;2022-09-29T03:33:12;8.82;;;7.93;;
65545;SDS011;52177;55.968;37.498;2022-09-29T03:33:43;8.48;;;7.60;;
65545;SDS011;52177;55.968;37.498;2022-09-29T03:34:14;8.98;;;8.18;;
65545;SDS011;52177;55.968;37.498;2022-09-29T03:34:44;8.70;;;7.80;;
65545;SDS011;52177;55.968;37.498;2022-09-29T03:35:14;8.65;;;7.88;;
65545;SDS011;52177;55.968;37.498;2022-09-29T03:35:45;10.00;;;7.78;;
65545;SDS011;52177;55.968;37.498;2022-09-29T03:36:15;8.98;;;8.07;;
65545;SDS011;52177;55.968;37.498;2022-09-29T03:36:45;9.57;;;8.15;;
65545;SDS011;52177;55.968;37.498;2022-09-29T03:37:16;8.38;;;7.60;;
65545;SDS011;52177;55.968;37.498;2022-09-29T03:37:46;8.82;;;7.93;;
65545;SDS011;52177;55.968;37.498;2022-09-29T03:38:16;10.32;;;7.95;;
65545;SDS011;52177;55.968;37.498;2022-09-29T03:38:48;9.93;;;8.13;;
65545;SDS011;52177;55.968;37.498;2022-09-29T03:39:19;8.95;;;8.15;;
65545;SDS011;52177;55.968;37.498;2022-09-29T03:39:50;9.68;;;8.70;;
65545;SDS011;52177;55.968;37.498;2022-09-29T03:40:20;9.85;;;8.85;;
65545;SDS011;52177;55.968;37.498;2022-09-29T03:40:50;9.23;;;8.32;;
65545;SDS011;52177;55.968;37.498;2022-09-29T03:41:22;9.57;;;8.68;;
65545;SDS011;52177;55.968;37.498;2022-09-29T03:41:53;10.00;;;8.23;;
65545;SDS011;52177;55.968;37.498;2022-09-29T03:42:24;9.05;;;8.20;;
65545;SDS011;52177;55.968;37.498;2022-09-29T03:42:57;8.95;;;8.20;;
65545;SDS011;52177;55.968;37.498;2022-09-29T03:43:27;9.82;;;8.82;;
65545;SDS011;52177;55.968;37.498;2022-09-29T03:43:57;10.38;;;9.00;;
65545;SDS011;52177;55.968;37.498;2022-09-29T03:44:28;10.40;;;8.80;;
65545;SDS011;52177;55.968;37.498;2022-09-29T03:44:58;9.65;;;8.63;;
65545;SDS011;52177;55.968;37.498;2022-09-29T03:45:28;9.85;;;8.50;;
65545;SDS011;52177;55.968;37.498;2022-09-29T03:45:59;9.18;;;8.32;;
65545;SDS011;52177;55.968;37.498;2022-09-29T03:46:30;9.02;;;8.13;;
65545;SDS011;52177;55.968;37.498;2022-09-29T03:47:01;9.43;;;8.48;;
65545;SDS011;52177;55.968;37.498;2022-09-29T03:47:31;9.35;;;8.48;;
65545;SDS011;52177;55.968;37.498;2022-09-29T03:48:01;9.98;;;7.72;;
65545;SDS011;52177;55.968;37.498;2022-09-29T03:48:32;9.02;;;8.10;;
65545;SDS011;52177;55.968;37.498;2022-09-29T03:49:04;9.10;;;8.23;;
65545;SDS011;52177;55.968;37.498;2022-09-29T03:49:34;9.57;;;8.68;;
65545;SDS011;52177;55.968;37.498;2022-09-29T03:50:04;9.30;;;8.35;;
65545;SDS011;52177;55.968;37.498;2022-09-29T03:50:35;9.55;;;8.55;;
65545;SDS011;52177;55.968;37.498;2022-09-29T03:51:05;9.27;;;8.48;;
65545;SDS011;52177;55.968;37.498;2022-09-29T03:51:36;10.20;;;9.20;;
65545;SDS011;52177;55.968;37.498;2022-09-29T03:52:07;8.98;;;8.18;;
65545;SDS011;52177;55.968;37.498;2022-09-29T03:52:37;9.75;;;8.30;;
65545;SDS011;52177;55.968;37.498;2022-09-29T03:53:08;9.10;;;8.30;;
65545;SDS011;52177;55.968;37.498;2022-09-29T03:53:38;11.38;;;8.25;;
65545;SDS011;52177;55.968;37.498;2022-09-29T03:54:09;9.93;;;8.35;;
65545;SDS011;52177;55.968;37.498;2022-09-29T03:54:40;9.63;;;8.52;;
65545;SDS011;52177;55.968;37.498;2022-09-29T03:55:10;9.43;;;8.52;;
65545;SDS011;52177;55.968;37.498;2022-09-29T03:55:44;9.63;;;8.73;;
65545;SDS011;52177;55.968;37.498;2022-09-29T03:56:16;9.00;;;8.20;;
65545;SDS011;52177;55.968;37.498;2022-09-29T03:56:46;9.57;;;8.65;;
65545;SDS011;52177;55.968;37.498;2022-09-29T03:57:17;9.00;;;8.10;;
65545;SDS011;52177;55.968;37.498;2022-09-29T03:57:47;8.73;;;7.93;;
65545;SDS011;52177;55.968;37.498;2022-09-29T03:58:17;9.85;;;8.23;;
65545;SDS011;52177;55.968;37.498;2022-09-29T03:58:48;9.65;;;8.70;;
65545;SDS011;52177;55.968;37.498;2022-09-29T03:59:18;9.98;;;9.07;;
65545;SDS011;52177;55.968;37.498;2022-09-29T03:59:48;10.40;;;8.73;;
65545;SDS011;52177;55.968;37.498;2022-09-29T04:00:19;10.35;;;9.27;;
65545;SDS011;52177;55.968;37.498;2022-09-29T04:00:50;10.02;;;9.10;;
65545;SDS011;52177;55.968;37.498;2022-09-29T04:01:21;15.35;;;9.75;;
65545;SDS011;52177;55.968;37.498;2022-09-29T04:01:51;11.00;;;9.68;;
65545;SDS011;52177;55.968;37.498;2022-09-29T04:02:22;10.20;;;8.98;;